Reduzum, Netherlands
Current Conditions -  °F | °C
As of 1:25 AM on Friday 28 Nov 2014 (Local Time) from EHLW Reporting Station
Haze Haze  
Wind Chill: 32°   Ceiling: 6000
Heat Index: 39°   Visibility: 4mi
Dew Point: 37°   Wind: 13mph
Humidity: 93%   Direction: 110°ESE
Pressure: 29.77"   Gusts: NA
Location:  53.12°N, 5.79°E
Report Text: EHLW 280025Z AUTO 11011KT 6000 BR OVC060 04/03 Q1008 WHT
Loading
Personal Weather Stations






























Interactive Weather Map New forecast layout! Learn more

10-Day Weather Forecast

Advertisements
Track Severe Weather on mobile